Cottonwd Hgts, Utah
Current Conditions -  °F | °C
As of 1:53 AM on Wednesday 26 Nov 2014 (Local Time) from KSLC Reporting Station
Broken Clouds Broken Clouds  
Wind Chill:   Ceiling: 6000
Heat Index:   Visibility: 10mi
Dew Point: -2°   Wind: 5mph
Humidity: 67%   Direction: 140°SE
Pressure: 30.33"   Gusts: NA
Location:  40.615°N, 111.891°W
Report Text: KSLC 260853Z 14004KT 10SM BKN060 04/M02 A3033 RMK AO2 SLP270 T00391017 53007
Loading
Personal Weather Stations






























Interactive Weather Map New forecast layout! Learn more

10-Day Weather Forecast

Advertisements
Track Severe Weather on mobile